Terminal Aerodrome Forecast
Issued by NWS

Current Version | Previous Version | Graphics & Text | Print | Product List | Glossary On
Versions: 1 2 3 4 5 6 7 8 9 10 11 12 13 14 15 16 17 18 19 20 21 22 23 24 25 26
328
FTUS41 KILN 290258 AAA
TAFLUK
TAF AMD
KLUK 290258Z 2903/2924 34008KT P6SM SCT005
     FM290500 30003KT 4SM BR BKN007
     FM290800 VRB02KT 1SM BR BKN005
     FM291400 32006KT 3SM BR BKN015
     FM291700 29008KT P6SM BKN035=

USA.gov is the U.S. government's official web portal to all federal, state and local government web resources and services.